Aeropuerto Internacional de Cozumel

MMCZ · Quintana Roo, Mexiko

METAR-Geschichte MMCZ · Cozumel International Airport

Unten siehst du die METARs der letzten paar Tage. Wähle ein Jahr, um ältere METARs ab dem Jahr 2007 zu durchsuchen.

21. Juli 2024

Uhrzeit Code Wetter Temp. Sichtweite Wolkendecke Wind METAR/SPECI
16:40
V
31 °C 8 mi 25.000 ft 060° 060° 5 kt METAR MMCZ 212140Z 06005KT 8SM FEW015 OVC250 31/26 A2988 RMK 8/107 SC VC TCU
15:41
V
31 °C 8 mi 25.000 ft 040° 040° 7 kt METAR MMCZ 212041Z 04007KT 8SM SCT015TCU BKN250 31/26 A2990 RMK SLP130 57024 977 8/208 SC
14:40
V
32 °C 8 mi 25.000 ft 050° 050° 8 kt METAR MMCZ 211940Z 05008KT 8SM SCT015TCU BKN250 32/26 A2991 RMK 8/208 SC AC
13:42
V
32 °C 8 mi 25.000 ft 080° 080° 10 kt METAR MMCZ 211842Z 08010KT 8SM SCT015TCU BKN250 32/25 A2994 RMK 8/208 SC
12:43
M
33 °C 8 mi 1.500 ft 090° 090° 9 kt METAR MMCZ 211743Z 09009KT 8SM BKN015TCU BKN250 33/26 A2997 RMK SLP154 57003 971 8/208 SC AC
11:43
M
33 °C 8 mi 1.500 ft 100° 100° 10 kt METAR MMCZ 211643Z 10010KT 8SM BKN015TCU BKN250 33/26 A2998 RMK 8/208 SC AC
10:43
M
32 °C 8 mi 1.500 ft 070° 070° 10 kt METAR MMCZ 211543Z 07010KT 8SM BKN015TCU BKN250 32/26 A2998 RMK 8/208 SC
09:44
V
32 °C 8 mi 10.000 ft 100° 100° 10 kt METAR MMCZ 211444Z 10010KT 8SM SCT015 BKN100 32/26 A2998 RMK SLP157 52007 968 8/130 SC CI
08:41
V
31 °C 8 mi 10.000 ft 080° 080° 8 kt METAR MMCZ 211341Z 08008KT 8SM SCT015TCU BKN100 31/27 A2998 RMK 8/230 SC CI
07:40
V
29 °C 8 mi - 070° 070° 4 kt METAR MMCZ 211240Z 07004KT 8SM SCT100 29/27 A2998 RMK 8/030 SC CI
06:43
V
26 °C 8 mi - 080° 080° 3 kt METAR MMCZ 211143Z 08003KT 8SM SCT100 26/26 A2996 RMK SLP150 5//// 959 8/030 SC CI RTS

20. Juli 2024

Uhrzeit Code Wetter Temp. Sichtweite Wolkendecke Wind METAR/SPECI
20:41
V
29 °C 7 mi 25.000 ft 080° 080° 4 kt METAR MMCZ 210141Z 08004KT 7SM FEW015 OVC250 29/26 A3000 RMK 8/507 CU
19:42
V
29 °C 7 mi 25.000 ft 080° 080° 5 kt METAR MMCZ 210042Z 08005KT 7SM FEW015 OVC250 29/26 A2999 RMK 8/507 CU
18:42
V
30 °C 7 mi 25.000 ft 060° 060° 7 kt METAR MMCZ 202342Z 06007KT 7SM FEW015 OVC250 30/26 A2997 RMK SLP153 57004 960 8/507 CU
17:42
V
31 °C 8 mi 25.000 ft 060° 060° 8 kt METAR MMCZ 202242Z 06008KT 8SM FEW015 BKN250 31/26 A2997 RMK 8/508 CU
16:40
V
31 °C 8 mi 25.000 ft 080° 080° 12 kt METAR MMCZ 202140Z 08012KT 8SM FEW015 BKN250 31/26 A2996 RMK 8/508
15:43
V
32 °C 8 mi 25.000 ft 070° 070° 11 kt METAR MMCZ 202043Z 07011KT 8SM SCT015TCU BKN250 32/26 A2998 RMK SLP157 57018 953 8/208 SC
14:41
V
32 °C 8 mi 25.000 ft 040° 040° 12 kt METAR MMCZ 201941Z 04012KT 8SM SCT015TCU BKN250 32/26 A3000 RMK 8/208
13:44
V
32 °C 8 mi 25.000 ft 060° 060° 10 kt METAR MMCZ 201844Z 06010KT 8SM SCT015TCU BKN250 32/26 A3001 RMK 8/208
12:44
V
32 °C 8 mi 25.000 ft 090° 090° 12 kt METAR MMCZ 201744Z 09012KT 8SM SCT015CB BKN250 32/26 A3003 RMK SLP175 54000 905 8/208
11:46
V
32 °C 8 mi 25.000 ft 060° 060° 9 kt METAR MMCZ 201646Z 06009KT 8SM SCT015CB BKN250 32/26 A3004 RMK 8/208
10:40
V
32 °C 8 mi 25.000 ft 090° 090° 13 kt METAR MMCZ 201540Z 09013KT 8SM SCT015TCU BKN250 32/27 A3004 RMK 8/208
10:10
V
32 °C 8 mi 25.000 ft 080° 080° 12 kt METAR MMCZ 201510Z RTD 08012KT 8SM FEW015 BKN250 32/27 A3003 RMK SLP/// 5//// 9// 8/508
08:43
V
30 °C 8 mi 25.000 ft 090° 090° 7 kt METAR MMCZ 201343Z 09007KT 8SM FEW015 BKN250 30/27 A3002 RMK 8/508
07:49
V
29 °C 7 mi - 080° 080° 3 kt METAR MMCZ 201249Z 08003KT 7SM SCT250 29/27 A3000 RMK 8/008
06:41
V
27 °C 7 mi 25.000 ft 080° 080° 4 kt METAR MMCZ 201141Z 08004KT 7SM BKN250 27/26 A2999 RMK SLP159 5//// 903 8/008 RTS

19. Juli 2024

Uhrzeit Code Wetter Temp. Sichtweite Wolkendecke Wind METAR/SPECI
20:40
V
25 °C 7 mi 25.000 ft 360° 360° 0 kt METAR MMCZ 200140Z 00000KT 7SM FEW015 SCT070 OVC250 25/25 A3001 RMK 8/577
19:43
V
26 °C 7 mi 25.000 ft 360° 360° 0 kt METAR MMCZ 200043Z 00000KT 7SM FEW015 SCT070 OVC250 26/25 A3000 RMK 8/577
18:40
V
26 °C 7 mi 8.000 ft 030° 030° 5 kt METAR MMCZ 192340Z 03005KT 7SM SCT015 BKN080 OVC250 26/25 A3000 RMK SLP163 52003 906 8/777 DROPS
17:44
V
26 °C 6 mi 8.000 ft 080° 080° 3 kt METAR MMCZ 192244Z 08003KT 6SM FEW015 BKN080 OVC250 26/25 A3000 RMK 8/467
16:40
M
25 °C 5 mi 1.500 ft 110° 110° 3 kt METAR MMCZ 192140Z 11003KT 5SM BKN015CB OVC100 25/24 A3000 RMK 8/36/ OCNL DROPS SC
15:43
M
26 °C 5 mi 1.500 ft 040° 040° 4 kt METAR MMCZ 192043Z 04004KT 5SM BKN015CB OVC100 26/24 A2999 RMK SLP160 57010 909 8/36/ OCNL DROPS SC
14:44
M
26 °C 5 mi 1.500 ft 360° 360° 0 kt METAR MMCZ 191944Z 00000KT 5SM BKN015TCU OVC100 26/25 A3001 RMK 8/27/ RA INTMT SC
13:41
M
32 °C 7 mi 1.500 ft 100° 100° 13 kt METAR MMCZ 191841Z 10013KT 7SM BKN015TCU 32/25 A3000 RMK 8/200
12:42
V
30 °C 7 mi 10.000 ft 090° 090° 8 kt METAR MMCZ 191742Z 09008KT 7SM SCT015 BKN100 BKN250 30/27 A3002 RMK SLP170 52002 910 6//// 8/463 RAE32
11:40
M
28 °C 7 mi 1.500 ft 090° 090° 4 kt METAR MMCZ 191640Z 09004KT 7SM BKN015CB 28/26 A3004 RMK 8/300 SC CI OCNL DROPS
10:41
V
27 °C 7 mi 8.000 ft 110° 110° 6 kt METAR MMCZ 191541Z 11006KT 7SM SCT015CB BKN080 BKN250 27/25 A3002 RMK 8/363 DSNT TS SW SC
09:48
V
31 °C 8 mi - 090° 090° 8 kt METAR MMCZ 191448Z 09008KT 8SM SCT015CB 31/25 A3001 RMK SLP168 52012 905 8/300 SC CI
08:42
M
31 °C 8 mi 1.500 ft 070° 070° 6 kt METAR MMCZ 191342Z 07006KT 8SM BKN015CB 31/27 A3001 RMK 8/300 SC CI
07:43
V
29 °C 8 mi - 110° 110° 4 kt METAR MMCZ 191243Z 11004KT 8SM FEW250 29/26 A3000 RMK 8/008 VC TCU
06:48
V
26 °C 7 mi - 110° 110° 4 kt METAR MMCZ 191148Z 11004KT 7SM SCT015 26/25 A2998 RMK SLP156 5//// 902 8/500 CU CI RTS
Eine Änderung melden